Terminal Aerodrome Forecast
Issued by NWS

Home | Current Version | Previous Version | Text Only | Print | Product List | Glossary On
Versions: 1 2 3 4 5 6 7 8 9 10 11 12 13 14 15 16 17 18
000
FTUS46 KLOX 302324
TAFSBP
TAF
KSBP 302324Z 3100/3124 31018G25KT P6SM SKC
     FM310300 31012KT P6SM SKC
     FM310800 VRB03KT P6SM SKC
     FM311200 VRB03KT 6SM BR SKC
     FM311700 29007KT P6SM SKC
     FM312100 31015G22KT P6SM SKC
      AMD NOT SKED=

USA.gov is the U.S. government's official web portal to all federal, state and local government web resources and services.